»·PEaware :: N9510L KAJO-KVCV

N9510L :: KAJO-KVCV

FLIGHT INFORMATION

Flight Status: Arrived
Operator: Privately registered:
United States
More flights under this callsign
Pilot: Rich S. (24902)
Aircraft: CESSNA 172 SKYHAWK
(C172)
More flights by this aircraft type
Origin: KAJO Corona Mun
United States
Destination: KVCV Socal Logistics
United States
More flights between these airports :: More routes between these airports
Route: PDZ V442 APLES
File this flight plan on PilotEdge
Remarks:
Altitude:
(Current/Filed)
9,000ft
Speed:
(Current/Filed)
115kts
Departed: 24-Nov-20 10:19 AM
Arrived: 24-Nov-20 12:06 PM
Distance/Time
Traveled:
43nm/1:47
Distance/Time
To Go:
Arrived

Flight Plot

Page will automatically refresh every two minutes.


Map Options




Map Legend


Flown Route
Filed Route
Departure Airport
Arrival Airport
Navaid (VOR, NDB)
Fix

Horizontal Profiles

Position Reports

Time Latitude Longitude Heading Altitude Ground
Speed
24-Nov-20 09:50 33.896978 -117.607296 180 537ft 0kts
24-Nov-20 09:51 33.896978 -117.607296 180 537ft 0kts
24-Nov-20 09:52 33.896978 -117.607296 180 537ft 0kts
24-Nov-20 09:53 33.896978 -117.607296 180 537ft 0kts
24-Nov-20 09:54 33.896978 -117.607296 180 537ft 0kts
24-Nov-20 09:55 33.896978 -117.607296 180 537ft 0kts
24-Nov-20 09:56 33.896978 -117.607296 180 537ft 0kts
24-Nov-20 09:57 33.896952 -117.607333 283 537ft 0kts
24-Nov-20 09:58 33.896952 -117.607333 283 537ft 0kts
24-Nov-20 09:59 33.896952 -117.607333 283 537ft 0kts
24-Nov-20 10:00 33.896952 -117.607333 283 537ft 0kts
24-Nov-20 10:01 33.896952 -117.607333 283 537ft 0kts
24-Nov-20 10:02 33.896952 -117.607333 283 537ft 0kts
24-Nov-20 10:03 33.896952 -117.607333 283 537ft 0kts
24-Nov-20 10:04 33.896952 -117.607333 283 537ft 0kts
24-Nov-20 10:05 33.896952 -117.607333 283 537ft 0kts
24-Nov-20 10:06 33.896952 -117.607333 283 537ft 0kts
24-Nov-20 10:07 33.896952 -117.607333 283 537ft 0kts
24-Nov-20 10:08 33.896952 -117.607333 283 537ft 0kts
24-Nov-20 10:09 33.896952 -117.607333 283 537ft 0kts
24-Nov-20 10:10 33.896952 -117.607333 283 537ft 0kts
24-Nov-20 10:11 33.896952 -117.607333 283 537ft 0kts
24-Nov-20 10:12 33.896952 -117.607333 283 537ft 0kts
24-Nov-20 10:13 33.896952 -117.607333 283 537ft 0kts
24-Nov-20 10:14 33.896952 -117.607335 281 537ft 0kts
24-Nov-20 10:15 33.897158 -117.607494 318 537ft 1kts
24-Nov-20 10:16 33.897164 -117.607501 315 537ft 0kts
24-Nov-20 10:17 33.897171 -117.607509 316 537ft 0kts
24-Nov-20 10:18 33.897845 -117.602670 89 566ft 73kts
24-Nov-20 10:19 33.901338 -117.577681 65 1593ft 80kts
24-Nov-20 10:20 33.909308 -117.552351 53 2512ft 74kts
24-Nov-20 10:21 33.918843 -117.528141 51 3216ft 87kts
24-Nov-20 10:22 33.935922 -117.509789 37 3898ft 90kts
24-Nov-20 10:23 33.945944 -117.483023 135 3975ft 111kts
24-Nov-20 10:24 33.914546 -117.485572 194 3894ft 122kts
24-Nov-20 10:38 33.896978 -117.607296 180 537ft 0kts
24-Nov-20 10:39 33.896978 -117.607296 180 537ft 0kts
24-Nov-20 10:40 33.896978 -117.607296 180 537ft 0kts
24-Nov-20 10:41 33.896978 -117.607296 180 537ft 0kts
24-Nov-20 10:42 33.896978 -117.607296 180 537ft 0kts
24-Nov-20 10:43 33.896978 -117.607296 180 537ft 0kts
24-Nov-20 10:44 33.896978 -117.607296 180 537ft 0kts
24-Nov-20 10:45 33.896926 -117.607318 216 537ft 1kts
24-Nov-20 10:46 33.896989 -117.607475 348 537ft 0kts
24-Nov-20 10:47 33.896989 -117.607475 348 537ft 0kts
24-Nov-20 10:48 33.896989 -117.607475 348 537ft 0kts
24-Nov-20 10:49 33.896989 -117.607475 349 537ft 0kts
24-Nov-20 10:49 33.896990 -117.607475 350 537ft 0kts
24-Nov-20 10:51 33.896990 -117.607475 350 537ft 0kts
24-Nov-20 10:52 33.896990 -117.607475 350 537ft 0kts
24-Nov-20 10:52 33.896990 -117.607475 349 537ft 0kts
24-Nov-20 10:54 33.897620 -117.607198 85 537ft 0kts
24-Nov-20 10:54 33.897667 -117.602432 89 549ft 77kts
24-Nov-20 10:56 33.896152 -117.569891 63 1560ft 90kts
24-Nov-20 10:56 33.907129 -117.544009 48 2035ft 106kts
24-Nov-20 10:58 33.927555 -117.516143 40 3063ft 79kts
24-Nov-20 10:58 33.943323 -117.501975 43 3655ft 90kts
24-Nov-20 10:59 33.950852 -117.512412 193 4522ft 94kts
24-Nov-20 11:00 33.924058 -117.523750 225 4970ft 114kts
24-Nov-20 11:01 33.925802 -117.548062 350 4952ft 109kts
24-Nov-20 11:02 33.948207 -117.527433 45 4931ft 110kts
24-Nov-20 11:03 33.958524 -117.500346 124 5531ft 97kts
24-Nov-20 11:04 33.934873 -117.513024 222 6088ft 103kts
24-Nov-20 11:05 33.915035 -117.537171 267 6689ft 100kts
24-Nov-20 11:06 33.930445 -117.526303 47 7158ft 95kts
24-Nov-20 11:07 33.951574 -117.509084 17 7768ft 87kts
24-Nov-20 11:08 33.975663 -117.496623 18 8137ft 102kts
24-Nov-20 11:09 34.001583 -117.481465 20 8502ft 103kts
24-Nov-20 11:10 34.027224 -117.465641 20 8834ft 106kts
24-Nov-20 11:11 34.054219 -117.448601 23 8987ft 116kts
24-Nov-20 11:12 34.083383 -117.429819 23 8986ft 121kts
24-Nov-20 11:13 34.113421 -117.411133 22 8990ft 121kts
24-Nov-20 11:14 34.142655 -117.393079 22 8996ft 116kts
24-Nov-20 11:15 34.171622 -117.376591 20 9006ft 114kts
24-Nov-20 11:16 34.200512 -117.360224 20 9016ft 114kts
24-Nov-20 11:17 34.229215 -117.343476 21 9023ft 115kts
24-Nov-20 11:18 34.257919 -117.326404 21 9024ft 115kts
24-Nov-20 11:19 34.286536 -117.309399 22 9025ft 115kts
24-Nov-20 11:20 34.314937 -117.291130 22 9025ft 115kts
24-Nov-20 11:21 34.343685 -117.273868 21 9025ft 115kts
24-Nov-20 11:22 34.373546 -117.256062 21 8776ft 127kts
24-Nov-20 11:23 34.405488 -117.237196 22 8275ft 126kts
24-Nov-20 11:24 34.435391 -117.218939 22 8042ft 113kts
24-Nov-20 11:25 34.462585 -117.202092 22 8037ft 107kts
24-Nov-20 11:26 34.489267 -117.185489 22 8036ft 108kts
24-Nov-20 11:27 34.516232 -117.168679 22 8035ft 109kts
24-Nov-20 11:28 34.543273 -117.151734 23 8034ft 109kts
24-Nov-20 11:29 34.572247 -117.141642 19 7545ft 109kts
24-Nov-20 11:30 34.596049 -117.143896 282 6927ft 109kts
24-Nov-20 11:31 34.604596 -117.171469 13 6607ft 95kts
24-Nov-20 11:32 34.627460 -117.152774 20 6802ft 105kts
24-Nov-20 11:33 34.656548 -117.154132 343 6709ft 98kts
24-Nov-20 11:34 34.683456 -117.165281 340 6702ft 99kts
24-Nov-20 11:35 34.705915 -117.183240 324 6669ft 95kts
24-Nov-20 11:36 34.728000 -117.202203 318 6701ft 99kts
24-Nov-20 11:37 34.747417 -117.226118 310 6662ft 106kts
24-Nov-20 11:38 34.764035 -117.254161 308 6685ft 103kts
24-Nov-20 11:39 34.777929 -117.282917 297 6602ft 94kts
24-Nov-20 11:40 34.789161 -117.315521 286 5594ft 106kts
24-Nov-20 11:41 34.795447 -117.349074 282 4746ft 102kts
24-Nov-20 11:42 34.782817 -117.373447 184 4378ft 100kts
24-Nov-20 11:43 34.757011 -117.375952 177 4351ft 94kts
24-Nov-20 11:44 34.732037 -117.369054 175 4351ft 98kts
24-Nov-20 11:45 34.706377 -117.374754 184 4409ft 92kts
24-Nov-20 11:46 34.680607 -117.379546 182 4267ft 93kts
24-Nov-20 11:47 34.654774 -117.383471 184 3440ft 92kts
24-Nov-20 11:48 34.629591 -117.386457 186 3441ft 91kts
24-Nov-20 11:49 34.608329 -117.393868 265 4337ft 83kts
24-Nov-20 11:50 34.607828 -117.422228 288 5162ft 82kts
24-Nov-20 11:51 34.614012 -117.448178 293 5980ft 79kts
24-Nov-20 11:52 34.622904 -117.480962 288 6067ft 121kts
24-Nov-20 11:53 34.630835 -117.519587 285 6057ft 114kts
24-Nov-20 11:54 34.638248 -117.556656 285 6049ft 112kts
24-Nov-20 11:55 34.647646 -117.591310 318 5759ft 110kts
24-Nov-20 11:56 34.661892 -117.574020 136 4889ft 125kts
24-Nov-20 11:57 34.636074 -117.551707 127 4440ft 93kts
24-Nov-20 11:58 34.633464 -117.522562 114 4706ft 89kts
24-Nov-20 11:59 34.621627 -117.492856 96 4683ft 100kts
24-Nov-20 12:00 34.612668 -117.463452 114 4469ft 87kts
24-Nov-20 12:01 34.608625 -117.435240 93 4215ft 89kts
24-Nov-20 12:02 34.600322 -117.403306 100 3826ft 103kts
24-Nov-20 12:03 34.577222 -117.403587 203 3475ft 103kts
24-Nov-20 12:04 34.574183 -117.387035 18 3133ft 87kts
24-Nov-20 12:05 34.588668 -117.386460 9 2867ft 15kts
24-Nov-20 12:06 34.594401 -117.386435 11 2856ft 10kts
24-Nov-20 12:07 34.594893 -117.385385 89 2855ft 0kts
24-Nov-20 12:08 34.594173 -117.383125 134 2857ft 15kts
24-Nov-20 12:09 34.590749 -117.378918 133 2866ft 13kts
24-Nov-20 12:10 34.589658 -117.376477 82 2868ft 5kts
24-Nov-20 12:11 34.589309 -117.374405 107 2868ft 0kts
24-Nov-20 12:12 34.589309 -117.374405 107 2868ft 0kts

Navigation Log

Ident Type
Flight plan parsing failed, navigation log unavailable